createdAt,value
2019-05-16T00:00:40.526Z,7.14
2019-05-16T00:01:40.231Z,7.07
2019-05-16T00:02:40.221Z,7.14
2019-05-16T00:03:40.234Z,7.03
2019-05-16T00:04:40.227Z,6.99
2019-05-16T00:05:50.415Z,6.92
2019-05-16T00:06:41.180Z,6.78
2019-05-16T00:07:40.160Z,6.82
2019-05-16T00:08:40.177Z,6.77
2019-05-16T00:09:40.161Z,6.77
2019-05-16T00:10:40.139Z,6.69
2019-05-16T00:11:40.119Z,6.77
2019-05-16T00:12:40.185Z,6.79
2019-05-16T00:13:40.097Z,6.81
2019-05-16T00:14:40.083Z,6.77
2019-05-16T00:15:40.115Z,6.85
2019-05-16T00:16:40.101Z,6.81
2019-05-16T00:17:40.066Z,6.77
2019-05-16T00:18:40.070Z,6.75
2019-05-16T00:19:40.027Z,6.79
2019-05-16T00:20:40.019Z,6.78
2019-05-16T00:21:40.064Z,6.69
2019-05-16T00:22:40.015Z,6.69
2019-05-16T00:23:39.993Z,6.62
2019-05-16T00:24:40.013Z,6.60
2019-05-16T00:25:39.967Z,6.64
2019-05-16T00:26:39.952Z,6.62
2019-05-16T00:27:40.019Z,6.67
2019-05-16T00:28:39.929Z,6.66
2019-05-16T00:29:39.920Z,6.66
2019-05-16T00:30:39.907Z,6.64
2019-05-16T00:31:39.899Z,6.63
2019-05-16T00:32:39.910Z,6.63
2019-05-16T00:33:39.910Z,6.60
2019-05-16T00:34:39.866Z,6.64
2019-05-16T00:35:39.854Z,6.64
2019-05-16T00:36:39.850Z,6.64
2019-05-16T00:37:39.838Z,6.57
2019-05-16T00:38:39.830Z,6.66
2019-05-16T00:39:39.837Z,6.67
2019-05-16T00:40:39.805Z,6.69
2019-05-16T00:41:39.803Z,6.64
2019-05-16T00:42:39.774Z,6.63
2019-05-16T00:43:39.763Z,6.62
2019-05-16T00:44:39.756Z,6.69
2019-05-16T00:45:39.783Z,6.56
2019-05-16T00:46:39.759Z,6.59
2019-05-16T00:47:39.720Z,6.57
2019-05-16T00:48:39.712Z,6.48
2019-05-16T00:49:39.695Z,6.54
2019-05-16T00:50:39.685Z,6.49
2019-05-16T00:51:39.697Z,6.56
2019-05-16T00:52:39.740Z,6.54
2019-05-16T00:53:39.677Z,6.57
2019-05-16T00:54:39.644Z,6.56
2019-05-16T00:55:39.642Z,6.60
2019-05-16T00:56:39.632Z,6.62
2019-05-16T00:57:39.637Z,6.62
2019-05-16T00:58:39.604Z,6.66
2019-05-16T00:59:39.584Z,6.79
2019-05-16T01:00:39.628Z,6.88
2019-05-16T01:01:39.561Z,6.92
2019-05-16T01:02:39.553Z,6.96
2019-05-16T01:03:39.593Z,6.93
2019-05-16T01:04:39.545Z,7.00
2019-05-16T01:05:39.531Z,7.07
2019-05-16T01:06:39.531Z,7.14
2019-05-16T01:07:39.497Z,7.14
2019-05-16T01:08:39.492Z,7.10
2019-05-16T01:09:39.510Z,7.10
2019-05-16T01:10:39.484Z,7.14
2019-05-16T01:11:39.450Z,7.20
2019-05-16T01:12:39.440Z,7.28
2019-05-16T01:13:39.474Z,7.25
2019-05-16T01:14:39.427Z,7.25
2019-05-16T01:15:39.437Z,7.23
2019-05-16T01:16:39.404Z,7.25
2019-05-16T01:17:39.413Z,7.20
2019-05-16T01:18:39.374Z,7.15
2019-05-16T01:19:39.366Z,7.14
2019-05-16T01:20:39.374Z,7.14
2019-05-16T01:21:39.359Z,7.14
2019-05-16T01:22:39.349Z,7.14
2019-05-16T01:23:39.327Z,7.11
2019-05-16T01:24:41.491Z,7.10
2019-05-16T01:25:39.294Z,7.14
2019-05-16T01:26:39.369Z,7.07
2019-05-16T01:27:39.343Z,7.14
2019-05-16T01:28:39.268Z,7.21
2019-05-16T01:29:39.260Z,7.29
2019-05-16T01:30:39.266Z,7.21
2019-05-16T01:31:39.234Z,7.29
2019-05-16T01:32:39.519Z,7.23
2019-05-16T01:33:39.246Z,7.35
2019-05-16T01:34:39.195Z,7.36
2019-05-16T01:35:41.752Z,7.35
2019-05-16T01:36:40.795Z,7.38
2019-05-16T01:37:39.165Z,7.42
2019-05-16T01:38:39.212Z,7.50
2019-05-16T01:39:39.171Z,7.58
2019-05-16T01:40:39.146Z,7.67
2019-05-16T01:41:39.157Z,7.50
2019-05-16T01:42:39.116Z,7.61
2019-05-16T01:43:39.107Z,7.67
2019-05-16T01:44:39.084Z,7.60
2019-05-16T01:45:39.104Z,7.60
2019-05-16T01:46:39.258Z,7.61
2019-05-16T01:47:39.473Z,7.63
2019-05-16T01:48:39.042Z,7.56
2019-05-16T01:49:39.081Z,7.61
2019-05-16T01:50:39.028Z,7.66
2019-05-16T01:51:39.050Z,7.58
2019-05-16T01:52:38.997Z,7.56
2019-05-16T01:53:39.561Z,7.58
2019-05-16T01:54:39.012Z,7.54
2019-05-16T01:55:39.029Z,7.60
2019-05-16T01:56:38.983Z,7.58
2019-05-16T01:57:39.326Z,7.60
2019-05-16T01:58:38.936Z,7.54
2019-05-16T01:59:38.919Z,7.58
2019-05-16T02:00:49.157Z,7.56
2019-05-16T02:01:39.902Z,7.50
2019-05-16T02:02:38.887Z,7.58
2019-05-16T02:03:38.961Z,7.51
2019-05-16T02:04:38.866Z,7.54
2019-05-16T02:05:38.936Z,7.61
2019-05-16T02:06:50.732Z,7.58
2019-05-16T02:07:39.834Z,7.61
2019-05-16T02:08:38.826Z,7.53
2019-05-16T02:09:38.841Z,7.61
2019-05-16T02:10:38.822Z,7.58
2019-05-16T02:11:38.929Z,7.54
2019-05-16T02:12:38.782Z,7.56
2019-05-16T02:13:39.234Z,7.57
2019-05-16T02:14:38.922Z,7.61
2019-05-16T02:15:38.765Z,7.57
2019-05-16T02:16:38.732Z,7.66
2019-05-16T02:17:38.767Z,7.67
2019-05-16T02:18:38.739Z,7.77
2019-05-16T02:19:38.700Z,7.73
2019-05-16T02:20:39.211Z,7.72
2019-05-16T02:21:38.976Z,7.76
2019-05-16T02:22:39.095Z,7.80
2019-05-16T02:23:38.670Z,7.80
2019-05-16T02:24:38.968Z,7.82
2019-05-16T02:25:40.890Z,7.87
2019-05-16T02:26:38.782Z,7.88
2019-05-16T02:27:41.124Z,7.93
2019-05-16T02:28:40.894Z,8.03
2019-05-16T02:29:40.118Z,7.94
2019-05-16T02:30:41.945Z,7.98
2019-05-16T02:31:41.819Z,8.00
2019-05-16T02:32:41.325Z,8.05
2019-05-16T02:33:40.618Z,8.03
2019-05-16T02:34:41.387Z,8.08
2019-05-16T02:35:40.607Z,8.08
2019-05-16T02:36:40.508Z,8.13
2019-05-16T02:37:41.780Z,8.12
2019-05-16T02:38:41.998Z,8.08
2019-05-16T02:39:40.938Z,8.09
2019-05-16T02:40:41.523Z,8.05
2019-05-16T02:41:38.461Z,8.00
2019-05-16T02:42:41.764Z,8.09
2019-05-16T02:43:41.716Z,8.01
2019-05-16T02:44:41.316Z,8.00
2019-05-16T02:45:41.489Z,8.03
2019-05-16T02:46:41.632Z,7.91
2019-05-16T02:47:41.983Z,7.83
2019-05-16T02:48:40.837Z,7.73
2019-05-16T02:49:41.192Z,7.66
2019-05-16T02:50:41.265Z,7.56
2019-05-16T02:51:40.568Z,7.53
2019-05-16T02:52:41.048Z,7.53
2019-05-16T02:53:41.323Z,7.43
2019-05-16T02:54:41.309Z,7.36
2019-05-16T02:55:40.846Z,7.28
2019-05-16T02:56:41.434Z,7.31
2019-05-16T02:57:41.576Z,7.35
2019-05-16T02:58:44.181Z,7.24
2019-05-16T02:59:41.591Z,7.25
2019-05-16T03:00:41.920Z,7.17
2019-05-16T03:01:40.798Z,7.28
2019-05-16T03:02:41.586Z,7.24
2019-05-16T03:03:40.207Z,7.29
2019-05-16T03:04:43.201Z,7.29
2019-05-16T03:05:41.597Z,7.32
2019-05-16T03:06:40.858Z,7.33
2019-05-16T03:07:45.834Z,7.36
2019-05-16T03:08:41.255Z,7.40
2019-05-16T03:09:40.890Z,7.40
2019-05-16T03:10:41.042Z,7.39
2019-05-16T03:11:38.173Z,7.43
2019-05-16T03:12:40.858Z,7.38
2019-05-16T03:13:38.119Z,7.45
2019-05-16T03:14:38.152Z,7.40
2019-05-16T03:15:40.797Z,7.40
2019-05-16T03:16:41.518Z,7.36
2019-05-16T03:17:40.283Z,7.32
2019-05-16T03:18:41.120Z,7.29
2019-05-16T03:19:38.059Z,7.36
2019-05-16T03:20:40.584Z,7.31
2019-05-16T03:21:41.138Z,7.29
2019-05-16T03:22:40.599Z,7.25
2019-05-16T03:23:41.705Z,7.28
2019-05-16T03:24:41.729Z,7.25
2019-05-16T03:25:38.003Z,7.29
2019-05-16T03:26:40.789Z,7.32
2019-05-16T03:27:41.012Z,7.25
2019-05-16T03:28:41.098Z,7.28
2019-05-16T03:29:37.940Z,7.31
2019-05-16T03:30:43.886Z,7.29
2019-05-16T03:31:44.510Z,7.29
2019-05-16T03:32:44.489Z,7.23
2019-05-16T03:33:47.348Z,7.32
2019-05-16T03:34:43.416Z,7.29
2019-05-16T03:35:44.040Z,7.32
2019-05-16T03:36:43.886Z,7.29
2019-05-16T03:37:51.557Z,7.28
2019-05-16T03:38:41.298Z,7.29
2019-05-16T03:39:40.541Z,7.28
2019-05-16T03:40:41.009Z,7.25
2019-05-16T03:41:37.808Z,7.38
2019-05-16T03:42:41.353Z,7.33
2019-05-16T03:43:41.010Z,7.31
2019-05-16T03:44:40.862Z,7.33
2019-05-16T03:45:41.411Z,7.28
2019-05-16T03:46:41.050Z,7.23
2019-05-16T03:47:37.748Z,7.33
2019-05-16T03:48:40.648Z,7.32
2019-05-16T03:49:37.757Z,7.38
2019-05-16T03:50:37.707Z,7.40
2019-05-16T03:51:37.717Z,7.39
2019-05-16T03:52:42.406Z,7.43
2019-05-16T03:53:40.323Z,7.58
2019-05-16T03:54:37.688Z,7.54
2019-05-16T03:55:40.476Z,7.56
2019-05-16T03:56:40.544Z,7.58
2019-05-16T03:57:41.058Z,7.58
2019-05-16T03:58:37.636Z,7.58
2019-05-16T03:59:40.698Z,7.57
2019-05-16T04:00:37.616Z,7.54
2019-05-16T04:01:40.677Z,7.58
2019-05-16T04:02:37.581Z,7.63
2019-05-16T04:03:40.982Z,7.66
2019-05-16T04:04:37.565Z,7.73
2019-05-16T04:05:41.190Z,7.58
2019-05-16T04:06:37.533Z,7.60
2019-05-16T04:07:41.050Z,7.66
2019-05-16T04:08:37.509Z,7.69
2019-05-16T04:09:40.896Z,7.69
2019-05-16T04:10:37.492Z,7.57
2019-05-16T04:11:37.478Z,7.61
2019-05-16T04:12:37.468Z,7.63
2019-05-16T04:13:40.770Z,7.69
2019-05-16T04:14:40.618Z,7.61
2019-05-16T04:15:40.598Z,7.66
2019-05-16T04:16:37.431Z,7.61
2019-05-16T04:17:40.811Z,7.61
2019-05-16T04:18:37.405Z,7.56
2019-05-16T04:19:37.430Z,7.54
2019-05-16T04:20:37.387Z,7.69
2019-05-16T04:21:37.368Z,7.61
2019-05-16T04:22:40.598Z,7.63
2019-05-16T04:23:37.361Z,7.61
2019-05-16T04:24:37.362Z,7.70
2019-05-16T04:25:40.754Z,7.73
2019-05-16T04:26:37.329Z,7.80
2019-05-16T04:27:37.303Z,7.83
2019-05-16T04:28:40.942Z,7.93
2019-05-16T04:29:40.579Z,7.90
2019-05-16T04:30:37.320Z,7.98
2019-05-16T04:31:37.294Z,8.08
2019-05-16T04:32:37.244Z,8.18
2019-05-16T04:33:37.234Z,8.15
2019-05-16T04:34:37.235Z,8.24
2019-05-16T04:35:37.232Z,8.24
2019-05-16T04:36:37.247Z,8.30
2019-05-16T04:37:37.239Z,8.34
2019-05-16T04:38:42.839Z,8.37
2019-05-16T04:39:41.250Z,8.45
2019-05-16T04:40:38.497Z,8.51
2019-05-16T04:41:40.697Z,8.52
2019-05-16T04:42:37.157Z,8.58
2019-05-16T04:43:37.184Z,8.56
2019-05-16T04:44:37.127Z,8.61
2019-05-16T04:45:37.122Z,8.66
2019-05-16T04:46:40.840Z,8.64
2019-05-16T04:47:37.104Z,8.66
2019-05-16T04:48:37.096Z,8.63
2019-05-16T04:49:37.128Z,8.71
2019-05-16T04:50:37.082Z,8.70
2019-05-16T04:51:37.060Z,8.67
2019-05-16T04:52:37.051Z,8.76
2019-05-16T04:53:37.050Z,8.81
2019-05-16T04:54:37.025Z,8.87
2019-05-16T04:55:37.048Z,8.89
2019-05-16T04:56:37.045Z,8.81
2019-05-16T04:57:36.995Z,8.84
2019-05-16T04:58:37.012Z,8.87
2019-05-16T04:59:36.965Z,8.81
2019-05-16T05:00:36.958Z,8.85
2019-05-16T05:01:36.989Z,8.85
2019-05-16T05:02:36.943Z,8.88
2019-05-16T05:03:36.925Z,8.74
2019-05-16T05:04:36.913Z,8.79
2019-05-16T05:05:36.922Z,8.79
2019-05-16T05:06:36.898Z,8.76
2019-05-16T05:07:36.907Z,8.76
2019-05-16T05:08:50.577Z,8.74
2019-05-16T05:09:40.587Z,8.76
2019-05-16T05:10:36.862Z,8.76
2019-05-16T05:11:36.846Z,8.79
2019-05-16T05:12:36.859Z,8.84
2019-05-16T05:13:36.837Z,8.85
2019-05-16T05:14:36.807Z,8.76
2019-05-16T05:15:36.832Z,8.85
2019-05-16T05:16:36.790Z,8.84
2019-05-16T05:17:36.784Z,8.78
2019-05-16T05:18:36.791Z,8.82
2019-05-16T05:19:36.773Z,8.85
2019-05-16T05:20:36.752Z,8.81
2019-05-16T05:21:36.749Z,8.95
2019-05-16T05:22:36.726Z,8.99
2019-05-16T05:23:36.727Z,9.02
2019-05-16T05:24:36.708Z,8.99
2019-05-16T05:25:36.738Z,9.04
2019-05-16T05:26:36.712Z,9.10
2019-05-16T05:27:36.674Z,9.19
2019-05-16T05:28:36.701Z,9.23
2019-05-16T05:29:36.662Z,9.37
2019-05-16T05:30:36.645Z,9.36
2019-05-16T05:31:36.662Z,9.44
2019-05-16T05:32:36.616Z,9.36
2019-05-16T05:33:36.608Z,9.37
2019-05-16T05:34:36.637Z,9.55
2019-05-16T05:35:36.607Z,9.50
2019-05-16T05:36:36.576Z,9.56
2019-05-16T05:37:36.603Z,9.64
2019-05-16T05:38:36.565Z,9.59
2019-05-16T05:39:36.554Z,9.58
2019-05-16T05:40:36.544Z,9.65
2019-05-16T05:41:36.526Z,9.64
2019-05-16T05:42:36.514Z,9.65
2019-05-16T05:43:36.522Z,9.69
2019-05-16T05:44:36.487Z,9.69
2019-05-16T05:45:36.509Z,9.66
2019-05-16T05:46:36.465Z,9.74
2019-05-16T05:47:37.072Z,9.77
2019-05-16T05:48:36.440Z,9.82
2019-05-16T05:49:36.445Z,9.80
2019-05-16T05:50:36.471Z,9.87
2019-05-16T05:51:36.438Z,9.97
2019-05-16T05:52:36.395Z,10.02
2019-05-16T05:53:36.444Z,10.16
2019-05-16T05:54:36.426Z,10.19
2019-05-16T05:55:36.387Z,10.12
2019-05-16T05:56:36.352Z,10.16
2019-05-16T05:57:36.354Z,10.28
2019-05-16T05:58:36.336Z,10.28
2019-05-16T05:59:36.332Z,10.28
2019-05-16T06:00:36.318Z,10.22
2019-05-16T06:01:36.326Z,10.25
2019-05-16T06:02:36.283Z,10.26
2019-05-16T06:03:36.273Z,10.23
2019-05-16T06:04:36.261Z,10.22
2019-05-16T06:05:36.244Z,10.28
2019-05-16T06:06:36.240Z,10.19
2019-05-16T06:07:36.275Z,10.25
2019-05-16T06:08:36.227Z,10.16
2019-05-16T06:09:48.757Z,10.23
2019-05-16T06:10:37.207Z,10.23
2019-05-16T06:11:36.188Z,10.17
2019-05-16T06:12:36.169Z,10.25
2019-05-16T06:13:36.183Z,10.15
2019-05-16T06:14:36.171Z,10.26
2019-05-16T06:15:36.153Z,10.16
2019-05-16T06:16:36.118Z,10.15
2019-05-16T06:17:36.113Z,10.19
2019-05-16T06:18:36.104Z,10.22
2019-05-16T06:19:36.107Z,10.26
2019-05-16T06:20:36.076Z,10.22
2019-05-16T06:21:36.078Z,10.15
2019-05-16T06:22:36.058Z,10.25
2019-05-16T06:23:36.050Z,10.19
2019-05-16T06:24:36.035Z,10.25
2019-05-16T06:25:36.054Z,10.28
2019-05-16T06:26:36.060Z,10.28
2019-05-16T06:27:36.043Z,10.31
2019-05-16T06:28:36.046Z,10.40
2019-05-16T06:29:35.992Z,10.30
2019-05-16T06:30:35.963Z,10.40
2019-05-16T06:31:36.004Z,10.28
2019-05-16T06:32:36.009Z,10.35
2019-05-16T06:33:35.942Z,10.38
2019-05-16T06:34:35.932Z,10.40
2019-05-16T06:35:35.956Z,10.48
2019-05-16T06:36:35.912Z,10.56
2019-05-16T06:37:35.918Z,10.57
2019-05-16T06:38:35.880Z,10.75
2019-05-16T06:39:42.000Z,10.81
2019-05-16T06:40:36.849Z,10.89
2019-05-16T06:41:39.639Z,11.05
2019-05-16T06:42:35.835Z,11.14
2019-05-16T06:43:35.848Z,11.23
2019-05-16T06:44:35.807Z,11.27
2019-05-16T06:45:35.806Z,11.22
2019-05-16T06:46:44.157Z,11.23
2019-05-16T06:47:36.777Z,11.32
2019-05-16T06:48:35.798Z,11.32
2019-05-16T06:49:35.762Z,11.19
2019-05-16T06:50:35.742Z,11.17
2019-05-16T06:51:35.725Z,11.23
2019-05-16T06:52:35.778Z,11.10
2019-05-16T06:53:35.707Z,11.04
2019-05-16T06:54:35.691Z,11.02
2019-05-16T06:55:35.749Z,10.93
2019-05-16T06:56:35.696Z,10.99
2019-05-16T06:57:35.653Z,10.96
2019-05-16T06:58:47.428Z,10.86
2019-05-16T06:59:36.651Z,11.00
2019-05-16T07:00:35.632Z,10.99
2019-05-16T07:01:35.632Z,11.00
2019-05-16T07:02:35.614Z,10.99
2019-05-16T07:03:35.580Z,11.08
2019-05-16T07:04:35.565Z,11.10
2019-05-16T07:05:35.557Z,11.11
2019-05-16T07:06:51.856Z,11.12
2019-05-16T07:07:36.548Z,11.07
2019-05-16T07:08:35.514Z,11.08
2019-05-16T07:09:35.525Z,11.00
2019-05-16T07:10:35.499Z,11.05
2019-05-16T07:11:35.497Z,11.07
2019-05-16T07:12:35.480Z,11.07
2019-05-16T07:13:35.484Z,11.00
2019-05-16T07:14:35.450Z,11.18
2019-05-16T07:15:35.466Z,11.14
2019-05-16T07:16:35.464Z,11.12
2019-05-16T07:17:35.417Z,11.12
2019-05-16T07:18:35.436Z,11.12
2019-05-16T07:19:35.647Z,11.23
2019-05-16T07:20:35.384Z,11.19
2019-05-16T07:21:35.356Z,11.18
2019-05-16T07:22:35.351Z,11.11
2019-05-16T07:23:35.336Z,11.11
2019-05-16T07:24:35.322Z,11.14
2019-05-16T07:25:35.373Z,11.22
2019-05-16T07:26:35.321Z,11.00
2019-05-16T07:27:35.334Z,11.04
2019-05-16T07:28:35.274Z,11.08
2019-05-16T07:29:35.273Z,10.96
2019-05-16T07:30:35.260Z,11.00
2019-05-16T07:31:35.273Z,10.96
2019-05-16T07:32:35.224Z,11.04
2019-05-16T07:33:35.215Z,11.00
2019-05-16T07:34:35.220Z,11.05
2019-05-16T07:35:35.188Z,11.00
2019-05-16T07:36:35.207Z,10.96
2019-05-16T07:37:35.196Z,10.87
2019-05-16T07:38:35.155Z,11.00
2019-05-16T07:39:35.144Z,11.07
2019-05-16T07:40:35.129Z,10.94
2019-05-16T07:41:35.135Z,11.05
2019-05-16T07:42:35.110Z,11.07
2019-05-16T07:43:35.151Z,11.07
2019-05-16T07:44:35.083Z,11.08
2019-05-16T07:45:37.695Z,11.07
2019-05-16T07:46:35.074Z,11.25
2019-05-16T07:47:35.063Z,11.25
2019-05-16T07:48:35.069Z,11.26
2019-05-16T07:49:35.104Z,11.35
2019-05-16T07:50:35.045Z,11.50
2019-05-16T07:51:35.031Z,11.70
2019-05-16T07:52:36.230Z,11.77
2019-05-16T07:53:34.977Z,11.83
2019-05-16T07:54:34.982Z,11.84
2019-05-16T07:55:34.969Z,11.91
2019-05-16T07:56:34.952Z,11.84
2019-05-16T07:57:34.934Z,11.87
2019-05-16T07:58:34.923Z,12.02
2019-05-16T07:59:34.934Z,12.09
2019-05-16T08:00:49.456Z,12.09
2019-05-16T08:01:35.882Z,12.03
2019-05-16T08:02:34.890Z,12.21
2019-05-16T08:03:34.858Z,12.32
2019-05-16T08:04:34.854Z,12.25
2019-05-16T08:05:34.866Z,12.32
2019-05-16T08:06:34.820Z,12.18
2019-05-16T08:07:34.829Z,11.99
2019-05-16T08:08:34.805Z,11.86
2019-05-16T08:09:34.787Z,11.70
2019-05-16T08:11:35.788Z,11.77
2019-05-16T08:12:34.753Z,11.68
2019-05-16T08:13:34.743Z,11.68
2019-05-16T08:14:35.273Z,11.73
2019-05-16T08:15:34.748Z,11.72
2019-05-16T08:16:34.711Z,11.77
2019-05-16T08:17:34.769Z,11.69
2019-05-16T08:18:34.706Z,11.48
2019-05-16T08:19:34.714Z,11.51
2019-05-16T08:20:34.707Z,11.55
2019-05-16T08:21:34.659Z,11.59
2019-05-16T08:22:34.644Z,11.68
2019-05-16T08:23:34.674Z,11.77
2019-05-16T08:24:36.191Z,11.83
2019-05-16T08:25:34.620Z,11.68
2019-05-16T08:26:39.085Z,11.55
2019-05-16T08:27:35.593Z,11.66
2019-05-16T08:28:34.581Z,11.80
2019-05-16T08:29:34.666Z,11.87
2019-05-16T08:30:34.564Z,11.84
2019-05-16T08:31:34.689Z,11.91
2019-05-16T08:32:34.531Z,12.03
2019-05-16T08:33:34.530Z,12.15
2019-05-16T08:34:34.519Z,12.25
2019-05-16T08:35:34.523Z,12.31
2019-05-16T08:36:34.502Z,12.37
2019-05-16T08:38:35.471Z,12.45
2019-05-16T08:39:34.452Z,12.60
2019-05-16T08:40:59.880Z,12.61
2019-05-16T08:41:35.443Z,12.47
2019-05-16T08:42:34.425Z,12.43
2019-05-16T08:43:34.441Z,12.22
2019-05-16T08:44:34.405Z,12.17
2019-05-16T08:45:34.381Z,12.18
2019-05-16T08:46:34.371Z,12.22
2019-05-16T08:47:34.411Z,12.12
2019-05-16T08:48:34.418Z,12.17
2019-05-16T08:49:34.337Z,11.88
2019-05-16T08:50:05.093Z,11.66
2019-05-16T08:50:35.193Z,11.88
2019-05-16T08:51:34.334Z,11.84
2019-05-16T08:52:34.301Z,11.70
2019-05-16T08:53:34.342Z,11.66
2019-05-16T08:54:34.301Z,11.60
2019-05-16T08:55:34.279Z,11.70
2019-05-16T08:56:34.259Z,11.73
2019-05-16T08:57:34.278Z,11.72
2019-05-16T08:58:34.241Z,11.84
2019-05-16T08:59:34.283Z,11.90
2019-05-16T09:00:34.233Z,12.03
2019-05-16T09:01:35.241Z,11.97
2019-05-16T09:03:35.208Z,12.32
2019-05-16T09:04:34.554Z,12.27
2019-05-16T09:05:34.194Z,12.42
2019-05-16T09:06:34.151Z,12.32
2019-05-16T09:07:34.145Z,12.21
2019-05-16T09:08:34.144Z,12.22
2019-05-16T09:09:44.486Z,12.29
2019-05-16T09:10:21.438Z,12.35
2019-05-16T09:10:25.133Z,12.20
2019-05-16T09:11:43.554Z,12.50
2019-05-16T09:12:37.132Z,12.64
2019-05-16T09:13:36.850Z,12.55
2019-05-16T09:14:36.331Z,12.72
2019-05-16T09:15:34.049Z,12.85
2019-05-16T09:16:37.076Z,12.91
2019-05-16T09:17:34.043Z,12.85
2019-05-16T09:18:36.426Z,12.55
2019-05-16T09:18:40.571Z,12.94
2019-05-16T09:19:36.940Z,12.95
2019-05-16T09:20:33.999Z,13.12
2019-05-16T09:21:34.004Z,13.09
2019-05-16T09:22:33.986Z,13.01
2019-05-16T09:23:33.952Z,13.09
2019-05-16T09:24:33.968Z,13.22
2019-05-16T09:25:36.822Z,13.16
2019-05-16T09:26:33.939Z,13.23
2019-05-16T09:27:33.963Z,13.30
2019-05-16T09:28:33.960Z,13.41
2019-05-16T09:29:36.589Z,13.57
2019-05-16T09:30:36.903Z,13.37
2019-05-16T09:31:33.864Z,13.31
2019-05-16T09:32:36.687Z,13.13
2019-05-16T09:33:33.837Z,13.22
2019-05-16T09:34:33.872Z,13.33
2019-05-16T09:35:36.836Z,13.38
2019-05-16T09:36:33.813Z,13.49
2019-05-16T09:37:33.795Z,13.68
2019-05-16T09:38:33.790Z,13.57
2019-05-16T09:39:33.771Z,13.49
2019-05-16T09:40:33.778Z,13.67
2019-05-16T09:41:53.280Z,13.79
2019-05-16T09:42:37.044Z,14.00
2019-05-16T09:43:33.724Z,14.10
2019-05-16T09:44:33.719Z,14.30
2019-05-16T09:45:33.699Z,14.29
2019-05-16T09:46:33.709Z,14.54
2019-05-16T09:47:33.677Z,15.73
2019-05-16T09:48:33.705Z,15.82
2019-05-16T09:49:33.696Z,15.76
2019-05-16T09:50:33.672Z,15.88
2019-05-16T09:51:33.635Z,16.29
2019-05-16T09:52:33.672Z,16.33
2019-05-16T09:53:33.616Z,16.05
2019-05-16T09:54:33.604Z,16.08
2019-05-16T09:55:33.590Z,16.08
2019-05-16T09:56:33.633Z,16.09
2019-05-16T09:57:33.571Z,16.26
2019-05-16T09:58:33.607Z,16.57
2019-05-16T09:59:33.549Z,17.02
2019-05-16T10:00:33.534Z,17.56
2019-05-16T10:01:33.524Z,17.79
2019-05-16T10:02:33.571Z,17.05
2019-05-16T10:03:33.505Z,18.11
2019-05-16T10:04:33.553Z,18.81
2019-05-16T10:05:33.489Z,19.18
2019-05-16T10:06:33.472Z,19.58
2019-05-16T10:07:33.493Z,19.91
2019-05-16T10:08:34.224Z,19.94
2019-05-16T10:09:42.155Z,19.77
2019-05-16T10:10:36.803Z,18.98
2019-05-16T10:11:33.506Z,18.35
2019-05-16T10:12:33.405Z,18.34
2019-05-16T10:13:33.413Z,18.07
2019-05-16T10:14:33.384Z,17.52
2019-05-16T10:15:33.369Z,17.45
2019-05-16T10:16:33.382Z,17.82
2019-05-16T10:17:33.354Z,17.74
2019-05-16T10:18:33.358Z,17.74
2019-05-16T10:19:33.351Z,17.34
2019-05-16T10:20:33.325Z,17.36
2019-05-16T10:21:33.310Z,16.86
2019-05-16T10:22:33.319Z,17.14
2019-05-16T10:23:33.287Z,17.98
2019-05-16T10:24:33.280Z,18.45
2019-05-16T10:25:33.275Z,18.59
2019-05-16T10:26:33.304Z,18.95
2019-05-16T10:27:33.245Z,19.18
2019-05-16T10:28:33.262Z,18.99
2019-05-16T10:29:33.237Z,19.39
2019-05-16T10:30:33.234Z,19.71
2019-05-16T10:31:44.789Z,19.64
2019-05-16T10:32:36.543Z,19.33
2019-05-16T10:33:34.211Z,19.29
2019-05-16T10:34:33.228Z,19.49
2019-05-16T10:35:33.174Z,19.73
2019-05-16T10:36:33.167Z,19.84
2019-05-16T10:37:33.155Z,20.14
2019-05-16T10:38:33.147Z,20.36
2019-05-16T10:39:33.183Z,20.55
2019-05-16T10:40:33.126Z,20.75
2019-05-16T10:41:33.108Z,20.81
2019-05-16T10:42:33.111Z,20.78
2019-05-16T10:43:33.085Z,20.82
2019-05-16T10:44:33.130Z,20.47
2019-05-16T10:45:33.109Z,20.39
2019-05-16T10:46:33.065Z,19.82
2019-05-16T10:47:33.050Z,18.99
2019-05-16T10:48:33.613Z,18.07
2019-05-16T10:49:37.686Z,17.64
2019-05-16T10:50:34.122Z,17.34
2019-05-16T10:51:33.053Z,17.51
2019-05-16T10:52:32.999Z,17.54
2019-05-16T10:54:01.327Z,18.15
2019-05-16T10:54:34.025Z,18.92
2019-05-16T10:55:32.969Z,19.54
2019-05-16T10:56:32.991Z,19.51
2019-05-16T10:57:33.072Z,19.70
2019-05-16T10:58:41.577Z,19.77
2019-05-16T11:01:11.123Z,17.80
2019-05-16T11:01:33.929Z,18.25
2019-05-16T11:02:33.092Z,18.70
2019-05-16T11:03:32.906Z,19.26
2019-05-16T11:04:49.880Z,19.02
2019-05-16T11:05:36.253Z,19.31
2019-05-16T11:06:33.864Z,19.67
2019-05-16T11:07:32.916Z,19.77
2019-05-16T11:08:32.884Z,20.44
2019-05-16T11:09:32.824Z,20.41
2019-05-16T11:10:32.871Z,20.58
2019-05-16T11:11:32.801Z,20.56
2019-05-16T11:12:46.101Z,20.58
2019-05-16T11:13:33.804Z,20.26
2019-05-16T11:14:32.779Z,20.06
2019-05-16T11:15:32.784Z,20.16
2019-05-16T11:16:32.757Z,19.96
2019-05-16T11:17:32.756Z,19.77
2019-05-16T11:18:32.734Z,19.77
2019-05-16T11:19:32.802Z,20.07
2019-05-16T11:20:32.742Z,20.65
2019-05-16T11:21:32.702Z,20.02
2019-05-16T11:22:32.692Z,19.39
2019-05-16T11:23:32.695Z,18.74
2019-05-16T11:24:32.776Z,19.19
2019-05-16T11:25:32.852Z,19.58
2019-05-16T11:26:32.654Z,19.67
2019-05-16T11:27:32.647Z,20.02
2019-05-16T11:28:32.654Z,20.00
2019-05-16T11:29:32.648Z,20.25
2019-05-16T11:30:32.673Z,20.14
2019-05-16T11:31:32.637Z,20.47
2019-05-16T11:32:32.600Z,20.13
2019-05-16T11:33:32.607Z,20.02
2019-05-16T11:34:32.580Z,19.41
2019-05-16T11:35:32.576Z,19.15
2019-05-16T11:36:32.560Z,19.14
2019-05-16T11:37:32.611Z,19.24
2019-05-16T11:38:32.539Z,19.19
2019-05-16T11:39:32.542Z,19.14
2019-05-16T11:40:32.522Z,19.08
2019-05-16T11:41:32.515Z,19.19
2019-05-16T11:42:32.510Z,18.90
2019-05-16T11:43:32.524Z,19.00
2019-05-16T11:44:32.500Z,19.37
2019-05-16T11:45:32.469Z,19.74
2019-05-16T11:46:32.463Z,19.54
2019-05-16T11:47:32.449Z,19.22
2019-05-16T11:48:32.465Z,19.15
2019-05-16T11:49:32.448Z,18.96
2019-05-16T11:50:32.443Z,18.90
2019-05-16T11:51:32.409Z,18.81
2019-05-16T11:52:32.402Z,18.50
2019-05-16T11:53:32.413Z,17.86
2019-05-16T11:54:32.388Z,17.56
2019-05-16T11:55:35.194Z,17.51
2019-05-16T11:56:33.355Z,17.31
2019-05-16T11:57:32.360Z,17.14
2019-05-16T11:58:32.381Z,17.19
2019-05-16T11:59:32.322Z,17.08
2019-05-16T12:00:32.312Z,17.20
2019-05-16T12:01:32.344Z,17.26
2019-05-16T12:02:32.310Z,17.57
2019-05-16T12:03:32.285Z,17.79
2019-05-16T12:04:32.270Z,18.01
2019-05-16T12:05:32.280Z,18.40
2019-05-16T12:06:32.277Z,18.47
2019-05-16T12:07:34.954Z,18.41
2019-05-16T12:08:32.765Z,18.44
2019-05-16T12:09:47.157Z,18.38
2019-05-16T12:10:33.204Z,18.49
2019-05-16T12:11:32.195Z,18.25
2019-05-16T12:12:32.180Z,18.25
2019-05-16T12:13:33.044Z,17.94
2019-05-16T12:14:32.163Z,17.82
2019-05-16T12:15:32.148Z,17.80
2019-05-16T12:16:32.137Z,17.59
2019-05-16T12:17:32.129Z,17.59
2019-05-16T12:18:32.113Z,17.60
2019-05-16T12:19:35.542Z,17.76
2019-05-16T12:20:33.092Z,17.72
2019-05-16T12:21:32.097Z,17.45
2019-05-16T12:22:32.075Z,17.19
2019-05-16T12:23:32.069Z,17.48
2019-05-16T12:24:37.708Z,17.48
2019-05-16T12:25:33.058Z,17.64
2019-05-16T12:26:32.037Z,17.72
2019-05-16T12:27:33.664Z,17.92
2019-05-16T12:28:32.004Z,18.04
2019-05-16T12:29:31.999Z,18.26
2019-05-16T12:30:31.989Z,18.56
2019-05-16T12:31:32.572Z,18.63
2019-05-16T12:32:31.964Z,18.96
2019-05-16T12:33:31.960Z,18.96
2019-05-16T12:34:31.938Z,18.88
2019-05-16T12:35:31.929Z,18.73
2019-05-16T12:36:31.922Z,18.37
2019-05-16T12:37:31.928Z,18.29
2019-05-16T12:38:31.896Z,18.04
2019-05-16T12:39:31.884Z,17.90
2019-05-16T12:40:31.880Z,17.89
2019-05-16T12:41:31.862Z,17.97
2019-05-16T12:42:31.858Z,17.95
2019-05-16T12:43:44.933Z,17.87
2019-05-16T12:44:32.826Z,17.92
2019-05-16T12:45:31.820Z,17.94
2019-05-16T12:46:31.812Z,17.79
2019-05-16T12:47:31.798Z,17.68
2019-05-16T12:48:31.784Z,17.86
2019-05-16T12:49:31.793Z,17.78
2019-05-16T12:50:31.769Z,17.59
2019-05-16T12:51:31.764Z,17.78
2019-05-16T12:52:31.745Z,17.83
2019-05-16T12:53:32.101Z,18.04
2019-05-16T12:54:31.722Z,17.85
2019-05-16T12:55:31.726Z,18.03
2019-05-16T12:56:31.703Z,17.95
2019-05-16T12:57:31.686Z,18.03
2019-05-16T12:58:37.960Z,18.07
2019-05-16T12:59:32.662Z,18.01
2019-05-16T13:00:31.657Z,18.15
2019-05-16T13:01:34.362Z,18.28
2019-05-16T13:02:31.632Z,18.00
2019-05-16T13:03:31.623Z,17.89
2019-05-16T13:04:31.613Z,17.86
2019-05-16T13:05:31.599Z,17.46